createdAt,value
2023-11-22T00:01:27.225Z,100268.81
2023-11-22T00:03:55.368Z,100260.53
2023-11-22T00:06:22.949Z,100254.84
2023-11-22T00:08:50.439Z,100261.78
2023-11-22T00:11:17.900Z,100248.97
2023-11-22T00:13:45.529Z,100266.66
2023-11-22T00:16:13.009Z,100262.59
2023-11-22T00:18:40.660Z,100261.38
2023-11-22T00:21:08.421Z,100259.78
2023-11-22T00:23:35.923Z,100262.78
2023-11-22T00:26:03.410Z,100265.66
2023-11-22T00:28:30.835Z,100262.97
2023-11-22T00:30:59.093Z,100258.69
2023-11-22T00:33:26.564Z,100258.53
2023-11-22T00:35:58.590Z,100267.28
2023-11-22T00:38:26.139Z,100269.19
2023-11-22T00:40:53.562Z,100274.03
2023-11-22T00:43:21.612Z,100268.53
2023-11-22T00:45:49.040Z,100265.28
2023-11-22T00:48:16.583Z,100270.53
2023-11-22T00:50:44.699Z,100274.31
2023-11-22T00:53:12.176Z,100273.75
2023-11-22T00:55:39.553Z,100274.22
2023-11-22T00:58:07.156Z,100270.84
2023-11-22T01:00:34.669Z,100272.94
2023-11-22T01:03:02.230Z,100261.16
2023-11-22T01:05:30.511Z,100262.50
2023-11-22T01:07:58.099Z,100269.34
2023-11-22T01:10:25.625Z,100264.47
2023-11-22T01:12:54.321Z,100263.31
2023-11-22T01:15:22.667Z,100265.69
2023-11-22T01:17:50.071Z,100275.91
2023-11-22T01:20:17.692Z,100274.13
2023-11-22T01:22:45.124Z,100268.97
2023-11-22T01:25:12.529Z,100275.69
2023-11-22T01:27:40.138Z,100268.06
2023-11-22T01:30:10.879Z,100262.81
2023-11-22T01:32:38.494Z,100264.28
2023-11-22T01:35:07.303Z,100260.66
2023-11-22T01:37:34.932Z,100271.34
2023-11-22T01:40:04.303Z,100258.19
2023-11-22T01:42:31.918Z,100259.88
2023-11-22T01:44:59.547Z,100252.94
2023-11-22T01:47:28.236Z,100248.44
2023-11-22T01:49:55.837Z,100253.44
2023-11-22T01:52:23.420Z,100249.97
2023-11-22T01:54:50.999Z,100261.16
2023-11-22T01:57:18.583Z,100262.19
2023-11-22T01:59:47.100Z,100269.41
2023-11-22T02:02:15.387Z,100266.75
2023-11-22T02:04:42.974Z,100274.06
2023-11-22T02:07:10.817Z,100268.28
2023-11-22T02:09:38.392Z,100274.69
2023-11-22T02:12:06.238Z,100270.81
2023-11-22T02:14:34.205Z,100266.88
2023-11-22T02:17:01.863Z,100264.47
2023-11-22T02:19:31.461Z,100274.59
2023-11-22T02:21:59.511Z,100283.16
2023-11-22T02:24:27.954Z,100270.69
2023-11-22T02:26:55.375Z,100275.50
2023-11-22T02:29:22.919Z,100278.78
2023-11-22T02:31:50.613Z,100270.75
2023-11-22T02:34:18.144Z,100268.00
2023-11-22T02:36:51.613Z,100281.97
2023-11-22T02:39:38.548Z,100281.38
2023-11-22T02:42:05.979Z,100279.38
2023-11-22T02:44:33.460Z,100284.66
2023-11-22T02:47:00.930Z,100279.09
2023-11-22T02:49:28.245Z,100276.16
2023-11-22T02:51:55.734Z,100284.34
2023-11-22T02:54:23.292Z,100284.88
2023-11-22T02:56:50.710Z,100284.28
2023-11-22T02:59:18.084Z,100282.09
2023-11-22T03:01:47.012Z,100283.03
2023-11-22T03:04:15.247Z,100280.16
2023-11-22T03:06:42.692Z,100279.75
2023-11-22T03:09:10.166Z,100298.63
2023-11-22T03:11:38.019Z,100289.22
2023-11-22T03:14:05.589Z,100288.63
2023-11-22T03:16:34.414Z,100295.19
2023-11-22T03:19:03.122Z,100293.28
2023-11-22T03:21:30.754Z,100299.94
2023-11-22T03:23:59.234Z,100294.09
2023-11-22T03:26:26.717Z,100295.91
2023-11-22T03:28:54.177Z,100297.09
2023-11-22T03:31:22.466Z,100301.56
2023-11-22T03:33:50.011Z,100295.38
2023-11-22T03:36:17.591Z,100290.22
2023-11-22T03:38:44.983Z,100296.13
2023-11-22T03:41:14.281Z,100293.91
2023-11-22T03:43:41.844Z,100287.13
2023-11-22T03:46:09.362Z,100291.50
2023-11-22T03:48:36.862Z,100290.50
2023-11-22T03:51:04.779Z,100293.78
2023-11-22T03:53:33.280Z,100288.16
2023-11-22T03:56:01.132Z,100294.28
2023-11-22T03:58:28.745Z,100290.50
2023-11-22T04:00:56.366Z,100290.44
2023-11-22T04:03:24.191Z,100289.09
2023-11-22T04:05:52.402Z,100292.50
2023-11-22T04:08:19.845Z,100298.56
2023-11-22T04:10:48.704Z,100282.81
2023-11-22T04:13:16.141Z,100293.69
2023-11-22T04:15:44.141Z,100301.03
2023-11-22T04:18:12.197Z,100301.25
2023-11-22T04:20:41.160Z,100303.13
2023-11-22T04:23:12.035Z,100303.56
2023-11-22T04:25:40.362Z,100306.72
2023-11-22T04:28:09.943Z,100303.44
2023-11-22T04:30:37.645Z,100303.44
2023-11-22T04:33:05.206Z,100308.13
2023-11-22T04:35:37.352Z,100307.06
2023-11-22T04:38:04.926Z,100310.50
2023-11-22T04:40:32.377Z,100305.91
2023-11-22T04:42:59.819Z,100300.28
2023-11-22T04:45:27.255Z,100311.38
2023-11-22T04:47:54.804Z,100307.59
2023-11-22T04:50:22.291Z,100305.97
2023-11-22T04:52:49.678Z,100307.59
2023-11-22T04:55:17.568Z,100317.94
2023-11-22T04:57:45.252Z,100314.97
2023-11-22T05:00:13.401Z,100321.44
2023-11-22T05:02:41.255Z,100310.97
2023-11-22T05:05:11.923Z,100317.09
2023-11-22T05:07:40.104Z,100319.06
2023-11-22T05:10:10.859Z,100339.75
2023-11-22T05:12:39.087Z,100337.00
2023-11-22T05:15:09.459Z,100342.41
2023-11-22T05:17:37.180Z,100331.34
2023-11-22T05:20:06.404Z,100336.25
2023-11-22T05:22:33.842Z,100347.34
2023-11-22T05:25:01.083Z,100367.75
2023-11-22T05:27:29.823Z,100350.56
2023-11-22T05:29:57.223Z,100349.16
2023-11-22T05:32:24.663Z,100362.06
2023-11-22T05:34:52.140Z,100349.16
2023-11-22T05:37:19.934Z,100369.25
2023-11-22T05:39:47.361Z,100372.06
2023-11-22T05:42:14.696Z,100358.41
2023-11-22T05:44:42.220Z,100372.53
2023-11-22T05:47:09.589Z,100378.81
2023-11-22T05:49:37.013Z,100367.16
2023-11-22T05:52:05.702Z,100387.31
2023-11-22T05:54:38.034Z,100380.34
2023-11-22T05:57:05.738Z,100387.34
2023-11-22T05:59:33.393Z,100373.91
2023-11-22T06:02:00.799Z,100390.75
2023-11-22T06:04:28.289Z,100386.22
2023-11-22T06:06:55.764Z,100397.38
2023-11-22T06:09:24.221Z,100393.09
2023-11-22T06:11:51.733Z,100400.44
2023-11-22T06:14:20.618Z,100406.16
2023-11-22T06:16:48.252Z,100399.88
2023-11-22T06:19:15.807Z,100411.19
2023-11-22T06:21:43.180Z,100400.03
2023-11-22T06:24:12.284Z,100413.97
2023-11-22T06:26:41.183Z,100415.81
2023-11-22T06:29:09.695Z,100418.88
2023-11-22T06:31:37.170Z,100422.13
2023-11-22T06:34:04.536Z,100422.31
2023-11-22T06:36:32.027Z,100426.53
2023-11-22T06:39:02.720Z,100418.78
2023-11-22T06:41:30.285Z,100429.44
2023-11-22T06:43:57.776Z,100428.03
2023-11-22T06:46:25.097Z,100427.13
2023-11-22T06:49:11.964Z,100429.34
2023-11-22T06:51:39.284Z,100447.03
2023-11-22T06:54:07.821Z,100432.78
2023-11-22T06:56:35.213Z,100447.00
2023-11-22T06:59:04.411Z,100450.06
2023-11-22T07:01:31.988Z,100464.84
2023-11-22T07:04:00.419Z,100460.72
2023-11-22T07:06:28.807Z,100468.72
2023-11-22T07:08:56.170Z,100470.63
2023-11-22T07:11:24.564Z,100471.34
2023-11-22T07:13:53.417Z,100485.81
2023-11-22T07:16:22.435Z,100485.56
2023-11-22T07:18:49.780Z,100495.59
2023-11-22T07:21:18.075Z,100495.97
2023-11-22T07:23:46.520Z,100486.34
2023-11-22T07:26:17.271Z,100495.66
2023-11-22T07:28:44.646Z,100507.81
2023-11-22T07:31:12.665Z,100517.75
2023-11-22T07:33:40.077Z,100525.19
2023-11-22T07:36:07.706Z,100534.41
2023-11-22T07:38:42.704Z,100522.13
2023-11-22T07:41:11.200Z,100536.63
2023-11-22T07:43:38.709Z,100537.38
2023-11-22T07:46:14.507Z,100553.44
2023-11-22T07:48:48.319Z,100556.84
2023-11-22T07:51:19.327Z,100557.38
2023-11-22T07:53:46.826Z,100550.69
2023-11-22T07:56:16.279Z,100545.03
2023-11-22T07:58:43.878Z,100553.03
2023-11-22T08:01:14.629Z,100565.72
2023-11-22T08:03:47.738Z,100575.25
2023-11-22T08:06:17.298Z,100579.91
2023-11-22T08:08:47.046Z,100595.44
2023-11-22T08:11:18.817Z,100588.34
2023-11-22T08:13:46.811Z,100604.97
2023-11-22T08:16:14.689Z,100600.34
2023-11-22T08:18:43.981Z,100604.13
2023-11-22T08:21:11.541Z,100608.19
2023-11-22T08:23:38.746Z,100601.91
2023-11-22T08:26:07.142Z,100611.72
2023-11-22T08:28:35.258Z,100616.94
2023-11-22T08:31:02.591Z,100622.72
2023-11-22T08:33:29.926Z,100620.16
2023-11-22T08:36:00.887Z,100624.97
2023-11-22T08:38:28.289Z,100617.88
2023-11-22T08:41:01.303Z,100632.88
2023-11-22T08:43:29.643Z,100623.84
2023-11-22T08:46:08.428Z,100640.09
2023-11-22T08:48:41.859Z,100643.06
2023-11-22T08:51:09.394Z,100640.66
2023-11-22T08:53:37.181Z,100632.72
2023-11-22T08:56:07.107Z,100636.16
2023-11-22T08:58:35.249Z,100629.19
2023-11-22T09:01:04.992Z,100638.09
2023-11-22T09:03:34.025Z,100652.03
2023-11-22T09:06:01.954Z,100639.66
2023-11-22T09:08:31.557Z,100644.03
2023-11-22T09:10:59.332Z,100650.59
2023-11-22T09:13:26.621Z,100660.38
2023-11-22T09:15:54.125Z,100668.78
2023-11-22T09:18:23.067Z,100668.31
2023-11-22T09:20:51.516Z,100667.22
2023-11-22T09:23:19.753Z,100662.22
2023-11-22T09:25:47.148Z,100673.38
2023-11-22T09:28:17.060Z,100670.63
2023-11-22T09:30:44.631Z,100665.34
2023-11-22T09:33:16.248Z,100674.31
2023-11-22T09:35:48.650Z,100669.06
2023-11-22T09:38:17.459Z,100673.88
2023-11-22T09:40:50.121Z,100673.78
2023-11-22T09:43:21.714Z,100668.66
2023-11-22T09:45:53.188Z,100681.41
2023-11-22T09:48:51.924Z,100676.44
2023-11-22T09:51:25.428Z,100677.56
2023-11-22T09:54:01.655Z,100681.22
2023-11-22T09:56:34.650Z,100681.47
2023-11-22T09:59:04.307Z,100686.06
2023-11-22T10:01:37.618Z,100688.41
2023-11-22T10:04:08.346Z,100673.63
2023-11-22T10:06:36.907Z,100680.63
2023-11-22T10:09:09.914Z,100687.03
2023-11-22T10:11:43.040Z,100684.06
2023-11-22T10:14:10.906Z,100684.94
2023-11-22T10:16:38.772Z,100683.25
2023-11-22T10:19:10.459Z,100676.91
2023-11-22T10:21:41.195Z,100679.69
2023-11-22T10:24:10.980Z,100682.88
2023-11-22T10:26:41.371Z,100686.22
2023-11-22T10:29:09.481Z,100688.47
2023-11-22T10:31:39.334Z,100688.81
2023-11-22T10:34:12.665Z,100684.84
2023-11-22T10:36:40.360Z,100682.56
2023-11-22T10:39:12.119Z,100677.03
2023-11-22T10:41:39.903Z,100684.97
2023-11-22T10:44:07.843Z,100690.59
2023-11-22T10:46:41.225Z,100683.22
2023-11-22T10:49:11.600Z,100675.75
2023-11-22T10:51:42.482Z,100683.06
2023-11-22T10:54:13.749Z,100675.94
2023-11-22T10:56:43.293Z,100683.44
2023-11-22T10:59:15.943Z,100680.44
2023-11-22T11:05:14.777Z,100669.78
2023-11-22T11:07:46.063Z,100677.09
2023-11-22T11:10:20.569Z,100688.16
2023-11-22T11:12:52.360Z,100687.38
2023-11-22T11:15:20.331Z,100692.44
2023-11-22T11:17:49.197Z,100702.72
2023-11-22T11:20:18.410Z,100709.25
2023-11-22T11:22:48.772Z,100717.00
2023-11-22T11:25:20.246Z,100716.47
2023-11-22T11:28:00.701Z,100708.66
2023-11-22T11:30:33.847Z,100718.41
2023-11-22T11:33:02.461Z,100709.84
2023-11-22T11:35:43.803Z,100706.63
2023-11-22T11:38:14.918Z,100705.44
2023-11-22T11:40:43.895Z,100715.97
2023-11-22T11:43:13.023Z,100708.91
2023-11-22T11:45:55.169Z,100720.44
2023-11-22T11:48:22.718Z,100727.25
2023-11-22T11:50:53.551Z,100730.78
2023-11-22T11:53:21.608Z,100722.91
2023-11-22T11:56:01.159Z,100729.09
2023-11-22T11:58:31.348Z,100726.06
2023-11-22T12:00:59.883Z,100725.53
2023-11-22T12:03:27.373Z,100724.78
2023-11-22T12:05:54.757Z,100721.78
2023-11-22T12:08:22.389Z,100718.31
2023-11-22T12:10:50.386Z,100729.56
2023-11-22T12:13:22.388Z,100738.63
2023-11-22T12:15:51.118Z,100741.91
2023-11-22T12:18:18.766Z,100742.34
2023-11-22T12:21:00.298Z,100745.63
2023-11-22T12:23:29.062Z,100739.56
2023-11-22T12:26:00.070Z,100740.84
2023-11-22T12:28:28.672Z,100743.75
2023-11-22T12:31:07.240Z,100741.97
2023-11-22T12:33:36.394Z,100741.59
2023-11-22T12:36:05.082Z,100751.16
2023-11-22T12:38:32.703Z,100739.06
2023-11-22T12:41:00.668Z,100744.19
2023-11-22T12:43:31.982Z,100750.84
2023-11-22T12:46:14.542Z,100750.66
2023-11-22T12:48:43.279Z,100753.22
2023-11-22T12:51:18.396Z,100755.72
2023-11-22T12:53:50.626Z,100761.44
2023-11-22T12:57:36.104Z,100758.09
2023-11-22T13:00:04.194Z,100751.53
2023-11-22T13:02:32.998Z,100754.31
2023-11-22T13:05:01.664Z,100762.47
2023-11-22T13:07:30.242Z,100767.97
2023-11-22T13:09:57.692Z,100770.38
2023-11-22T13:12:25.470Z,100759.44
2023-11-22T13:14:52.973Z,100754.31
2023-11-22T13:17:20.395Z,100756.38
2023-11-22T13:19:50.547Z,100757.50
2023-11-22T13:22:18.008Z,100771.53
2023-11-22T13:24:45.243Z,100761.41
2023-11-22T13:27:12.646Z,100765.75
2023-11-22T13:29:40.040Z,100775.78
2023-11-22T13:32:09.181Z,100795.84
2023-11-22T13:34:36.984Z,100769.28
2023-11-22T13:37:05.829Z,100772.66
2023-11-22T13:39:36.988Z,100765.25
2023-11-22T13:42:04.635Z,100756.94
2023-11-22T13:44:33.047Z,100762.69
2023-11-22T13:47:00.449Z,100773.31
2023-11-22T13:49:28.047Z,100770.91
2023-11-22T13:51:57.104Z,100779.50
2023-11-22T13:54:26.708Z,100771.25
2023-11-22T13:56:54.356Z,100771.25
2023-11-22T13:59:21.673Z,100766.06
2023-11-22T14:01:50.324Z,100764.06
2023-11-22T14:04:18.936Z,100769.97
2023-11-22T14:06:47.033Z,100765.72
2023-11-22T14:09:15.913Z,100778.69
2023-11-22T14:11:43.410Z,100758.97
2023-11-22T14:14:13.335Z,100772.63
2023-11-22T14:16:45.788Z,100773.97
2023-11-22T14:19:14.372Z,100780.16
2023-11-22T14:21:41.684Z,100782.91
2023-11-22T14:24:09.804Z,100784.47
2023-11-22T14:26:38.237Z,100789.38
2023-11-22T14:29:07.029Z,100797.81
2023-11-22T14:31:34.405Z,100798.47
2023-11-22T14:34:02.784Z,100795.09
2023-11-22T14:36:30.928Z,100797.88
2023-11-22T14:38:58.400Z,100794.91
2023-11-22T14:41:25.985Z,100811.22
2023-11-22T14:43:53.295Z,100812.50
2023-11-22T14:46:20.881Z,100806.75
2023-11-22T14:48:50.049Z,100821.03
2023-11-22T14:51:17.514Z,100819.00
2023-11-22T14:53:44.868Z,100822.53
2023-11-22T14:56:12.437Z,100840.97
2023-11-22T14:58:40.930Z,100845.41
2023-11-22T15:01:10.069Z,100843.22
2023-11-22T15:03:37.639Z,100861.41
2023-11-22T15:06:06.180Z,100846.91
2023-11-22T15:08:34.790Z,100868.19
2023-11-22T15:11:02.143Z,100870.28
2023-11-22T15:13:29.639Z,100873.69
2023-11-22T15:15:57.743Z,100870.72
2023-11-22T15:18:25.810Z,100874.72
2023-11-22T15:20:53.595Z,100865.13
2023-11-22T15:23:21.354Z,100874.31
2023-11-22T15:25:48.871Z,100884.19
2023-11-22T15:28:23.922Z,100874.06
2023-11-22T15:30:59.159Z,100890.88
2023-11-22T15:33:27.480Z,100888.81
2023-11-22T15:35:55.135Z,100895.34
2023-11-22T15:38:23.425Z,100906.53
2023-11-22T15:40:50.988Z,100904.53
2023-11-22T15:43:18.354Z,100924.75
2023-11-22T15:45:45.655Z,100941.88
2023-11-22T15:48:14.944Z,100944.63
2023-11-22T15:50:42.378Z,100956.25
2023-11-22T15:53:14.159Z,100951.63
2023-11-22T15:55:41.675Z,100967.81
2023-11-22T15:58:09.972Z,100968.81
2023-11-22T16:00:37.504Z,100974.09
2023-11-22T16:03:08.575Z,100978.28
2023-11-22T16:05:36.030Z,100982.41
2023-11-22T16:08:03.586Z,100983.63
2023-11-22T16:10:30.968Z,100978.91
2023-11-22T16:12:58.247Z,100977.72
2023-11-22T16:15:25.711Z,100993.53
2023-11-22T16:17:53.013Z,100997.72
2023-11-22T16:20:22.831Z,100998.50
2023-11-22T16:22:50.884Z,101005.50
2023-11-22T16:25:23.812Z,101017.41
2023-11-22T16:27:52.073Z,101026.38
2023-11-22T16:30:19.335Z,101018.09
2023-11-22T16:32:47.220Z,101018.25
2023-11-22T16:35:17.318Z,101027.13
2023-11-22T16:37:45.036Z,101027.91
2023-11-22T16:40:13.556Z,101028.63
2023-11-22T16:42:41.033Z,101041.63
2023-11-22T16:45:09.050Z,101032.31
2023-11-22T16:47:37.225Z,101040.94
2023-11-22T16:50:06.229Z,101038.34
2023-11-22T16:52:33.999Z,101042.91
2023-11-22T16:55:01.813Z,101058.69
2023-11-22T16:57:29.159Z,101060.44
2023-11-22T16:59:56.535Z,101074.41
2023-11-22T17:02:23.980Z,101074.22
2023-11-22T17:04:51.389Z,101090.97
2023-11-22T17:07:18.744Z,101098.34
2023-11-22T17:09:46.102Z,101094.81
2023-11-22T17:12:13.580Z,101100.25
2023-11-22T17:14:40.840Z,101105.25
2023-11-22T17:17:08.360Z,101099.22
2023-11-22T17:19:35.700Z,101104.81
2023-11-22T17:22:03.326Z,101110.75
2023-11-22T17:24:30.787Z,101108.97
2023-11-22T17:26:58.071Z,101110.09
2023-11-22T17:29:25.822Z,101117.38
2023-11-22T17:31:53.312Z,101117.84
2023-11-22T17:34:21.977Z,101109.25
2023-11-22T17:40:17.498Z,101119.03
2023-11-22T17:42:45.865Z,101106.34
2023-11-22T17:45:16.237Z,101109.75
2023-11-22T17:47:44.869Z,101117.16
2023-11-22T17:50:12.537Z,101117.75
2023-11-22T17:52:39.822Z,101106.28
2023-11-22T17:55:07.220Z,101121.41
2023-11-22T17:57:34.523Z,101121.22
2023-11-22T18:00:02.057Z,101118.41
2023-11-22T18:02:29.592Z,101120.56
2023-11-22T18:04:58.040Z,101138.03
2023-11-22T18:07:25.427Z,101132.66
2023-11-22T18:09:53.982Z,101137.00
2023-11-22T18:12:21.302Z,101149.63
2023-11-22T18:14:48.692Z,101145.81
2023-11-22T18:17:17.518Z,101166.47
2023-11-22T18:19:45.884Z,101157.91
2023-11-22T18:22:28.202Z,101179.22
2023-11-22T18:24:55.715Z,101176.69
2023-11-22T18:27:23.241Z,101198.25
2023-11-22T18:29:50.615Z,101204.34
2023-11-22T18:32:18.139Z,101205.69
2023-11-22T18:34:45.614Z,101221.69
2023-11-22T18:37:13.027Z,101202.88
2023-11-22T18:39:40.343Z,101218.75
2023-11-22T18:42:07.946Z,101224.53
2023-11-22T18:44:39.843Z,101219.16
2023-11-22T18:47:09.047Z,101224.22
2023-11-22T18:49:37.453Z,101219.94
2023-11-22T18:52:05.451Z,101229.84
2023-11-22T18:54:32.998Z,101226.66
2023-11-22T18:57:01.505Z,101241.91
2023-11-22T18:59:28.953Z,101230.25
2023-11-22T19:01:58.838Z,101228.00
2023-11-22T19:04:26.555Z,101238.00
2023-11-22T19:06:54.253Z,101234.16
2023-11-22T19:09:21.545Z,101250.44
2023-11-22T19:11:49.300Z,101253.22
2023-11-22T19:14:16.733Z,101241.28
2023-11-22T19:16:45.444Z,101245.56
2023-11-22T19:19:17.431Z,101239.09
2023-11-22T19:21:44.871Z,101251.72
2023-11-22T19:24:12.283Z,101252.94
2023-11-22T19:26:39.851Z,101260.59
2023-11-22T19:29:11.160Z,101253.97
2023-11-22T19:31:38.580Z,101256.16
2023-11-22T19:34:05.959Z,101253.63
2023-11-22T19:36:33.399Z,101250.69
2023-11-22T19:39:00.679Z,101262.28
2023-11-22T19:41:28.595Z,101260.38
2023-11-22T19:43:57.448Z,101267.56
2023-11-22T19:46:24.956Z,101265.91
2023-11-22T19:48:52.354Z,101265.22
2023-11-22T19:51:20.689Z,101264.41
2023-11-22T19:53:48.104Z,101266.84
2023-11-22T19:56:15.507Z,101275.69
2023-11-22T19:58:43.146Z,101276.72
2023-11-22T20:01:10.513Z,101287.63
2023-11-22T20:03:38.874Z,101298.00
2023-11-22T20:06:06.393Z,101298.31
2023-11-22T20:08:33.824Z,101309.56
2023-11-22T20:11:01.249Z,101305.22
2023-11-22T20:13:28.606Z,101315.44
2023-11-22T20:15:55.981Z,101319.88
2023-11-22T20:18:23.486Z,101312.09
2023-11-22T20:20:51.073Z,101333.56
2023-11-22T20:23:20.276Z,101327.06
2023-11-22T20:25:47.725Z,101310.97
2023-11-22T20:28:15.162Z,101322.22
2023-11-22T20:30:42.571Z,101319.09
2023-11-22T20:33:10.160Z,101325.38
2023-11-22T20:35:37.596Z,101336.47
2023-11-22T20:38:04.916Z,101363.50
2023-11-22T20:40:32.624Z,101358.25
2023-11-22T20:43:00.336Z,101359.34
2023-11-22T20:45:27.647Z,101353.97
2023-11-22T20:47:55.320Z,101343.03
2023-11-22T20:50:26.662Z,101337.31
2023-11-22T20:52:54.160Z,101330.25
2023-11-22T20:55:21.439Z,101341.94
2023-11-22T20:57:49.127Z,101329.22
2023-11-22T21:00:18.116Z,101336.88
2023-11-22T21:02:45.706Z,101322.31
2023-11-22T21:05:13.236Z,101343.69
2023-11-22T21:07:40.943Z,101333.56
2023-11-22T21:10:08.805Z,101345.84
2023-11-22T21:12:36.122Z,101342.22
2023-11-22T21:15:03.869Z,101348.34
2023-11-22T21:17:40.867Z,101350.66
2023-11-22T21:20:11.201Z,101360.94
2023-11-22T21:22:39.040Z,101366.03
2023-11-22T21:25:09.465Z,101366.41
2023-11-22T21:27:37.042Z,101373.25
2023-11-22T21:30:04.598Z,101393.94
2023-11-22T21:32:31.973Z,101399.03
2023-11-22T21:34:59.180Z,101390.66
2023-11-22T21:37:27.460Z,101390.63
2023-11-22T21:39:54.638Z,101390.75
2023-11-22T21:42:21.795Z,101396.44
2023-11-22T21:44:49.114Z,101395.66
2023-11-22T21:47:16.351Z,101405.06
2023-11-22T21:49:43.939Z,101413.00
2023-11-22T21:52:12.338Z,101411.50
2023-11-22T21:54:39.569Z,101415.81
2023-11-22T21:57:06.791Z,101406.19
2023-11-22T21:59:35.212Z,101414.84
2023-11-22T22:02:02.836Z,101418.22
2023-11-22T22:04:30.081Z,101415.59
2023-11-22T22:06:57.332Z,101412.44
2023-11-22T22:09:24.545Z,101420.00
2023-11-22T22:11:51.782Z,101425.31
2023-11-22T22:14:19.087Z,101428.72
2023-11-22T22:16:47.837Z,101435.66
2023-11-22T22:19:15.142Z,101428.63
2023-11-22T22:21:42.414Z,101436.44
2023-11-22T22:24:10.278Z,101431.25
2023-11-22T22:26:37.638Z,101443.25
2023-11-22T22:29:05.290Z,101434.13
2023-11-22T22:31:32.722Z,101430.84
2023-11-22T22:34:00.046Z,101425.56
2023-11-22T22:36:27.517Z,101428.97
2023-11-22T22:38:55.064Z,101417.78
2023-11-22T22:41:23.912Z,101413.56
2023-11-22T22:43:51.286Z,101416.19
2023-11-22T22:46:19.658Z,101421.28
2023-11-22T22:48:47.480Z,101428.25
2023-11-22T22:51:18.556Z,101423.09
2023-11-22T22:53:49.804Z,101424.09
2023-11-22T22:56:20.629Z,101421.22
2023-11-22T22:58:49.676Z,101429.53
2023-11-22T23:01:17.346Z,101421.66
2023-11-22T23:03:45.509Z,101421.69
2023-11-22T23:06:26.700Z,101409.66
2023-11-22T23:08:54.823Z,101406.84
2023-11-22T23:11:23.356Z,101412.66
2023-11-22T23:13:51.632Z,101406.47
2023-11-22T23:16:19.029Z,101395.41
2023-11-22T23:18:47.898Z,101398.66
2023-11-22T23:21:18.001Z,101400.50
2023-11-22T23:23:46.430Z,101383.66
2023-11-22T23:26:14.029Z,101389.03
2023-11-22T23:28:41.383Z,101381.44
2023-11-22T23:31:08.813Z,101383.09
2023-11-22T23:33:38.486Z,101393.66
2023-11-22T23:36:09.568Z,101387.38
2023-11-22T23:38:37.643Z,101391.19
2023-11-22T23:41:05.445Z,101390.88
2023-11-22T23:43:37.309Z,101387.56
2023-11-22T23:46:05.245Z,101388.41
2023-11-22T23:48:35.131Z,101396.03
2023-11-22T23:51:02.847Z,101393.94
2023-11-22T23:53:30.241Z,101404.94
2023-11-22T23:55:57.664Z,101386.13
2023-11-22T23:58:25.120Z,101413.41
